Time;durP1;ratioP1;P1;durP2;ratioP2;P2;SDS_P1;SDS_P2;PMS_P1;PMS_P2;Temp;Humidity;BMP_temperature;BMP_pressure;BME280_temperature;BME280_humidity;BME280_pressure;Samples;Min_cycle;Max_cycle;Signal;HPM_P1;HPM_P2
2023/10/18 00:01:01;;;;;;;17.77;15.23;;;;;;;6.09;100.00;101220.84;5032110;28;20087;-52
2023/10/18 00:03:31;;;;;;;18.45;14.82;;;;;;;5.75;100.00;101159.28;5030802;28;20038;-50
2023/10/18 00:05:58;;;;;;;17.00;14.77;;;;;;;5.73;100.00;101161.88;5031777;28;20038;-50
2023/10/18 00:08:23;;;;;;;20.10;16.55;;;;;;;6.01;100.00;101212.22;5030336;28;20033;-50
2023/10/18 00:10:55;;;;;;;19.58;15.70;;;;;;;5.97;100.00;101219.22;5030348;28;20038;-52
2023/10/18 00:13:23;;;;;;;19.02;14.88;;;;;;;5.98;100.00;101205.25;5031706;28;20060;-50
2023/10/18 00:15:55;;;;;;;23.17;15.93;;;;;;;5.94;100.00;101198.31;5031985;28;20034;-49
2023/10/18 00:18:20;;;;;;;21.02;16.42;;;;;;;5.62;100.00;101145.44;5031336;28;20049;-50
2023/10/18 00:20:46;;;;;;;18.27;16.38;;;;;;;5.88;100.00;101193.16;5031205;28;20049;-48
2023/10/18 00:23:11;;;;;;;19.35;16.10;;;;;;;5.46;100.00;101125.50;5031278;28;20037;-53
2023/10/18 00:25:36;;;;;;;18.88;16.50;;;;;;;5.78;100.00;101178.38;5031906;28;20128;-52
2023/10/18 00:28:03;;;;;;;22.98;16.80;;;;;;;5.50;100.00;101124.63;5029734;28;20117;-47
2023/10/18 00:30:30;;;;;;;20.27;16.70;;;;;;;5.38;100.00;101104.69;5046843;28;20061;-49
2023/10/18 00:32:55;;;;;;;21.90;17.50;;;;;;;5.63;100.00;101149.78;5033502;28;20514;-49
2023/10/18 00:35:22;;;;;;;19.80;16.42;;;;;;;5.83;100.00;101179.22;5033489;28;20030;-50
2023/10/18 00:37:48;;;;;;;19.90;15.98;;;;;;;5.38;100.00;101109.03;5035162;28;20041;-50
2023/10/18 00:43:16;;;;;;;19.35;16.25;;;;;;;5.36;100.00;101100.38;5034207;28;20037;-48
2023/10/18 00:45:47;;;;;;;19.55;16.67;;;;;;;5.51;100.00;101124.63;5033343;28;20045;-51
2023/10/18 00:48:13;;;;;;;21.52;16.77;;;;;;;5.80;100.00;101166.19;5035108;28;20091;-52
2023/10/18 00:50:43;;;;;;;21.55;17.13;;;;;;;5.42;100.00;101103.81;5033757;28;20034;-49
2023/10/18 00:53:08;;;;;;;20.70;16.48;;;;;;;5.73;100.00;101161.00;5049836;28;20128;-51
2023/10/18 00:55:34;;;;;;;18.80;16.38;;;;;;;5.85;100.00;101174.88;5033859;28;20109;-52
2023/10/18 00:58:00;;;;;;;21.45;17.52;;;;;;;5.43;100.00;101104.69;5035153;28;20535;-51
2023/10/18 01:00:26;;;;;;;21.30;16.60;;;;;;;5.81;100.00;101167.91;5033594;28;20042;-52
2023/10/18 01:02:57;;;;;;;19.55;16.92;;;;;;;5.34;100.00;101084.69;5032016;28;20131;-50
2023/10/18 01:05:22;;;;;;;20.58;16.05;;;;;;;5.82;100.00;101174.00;5034543;28;20044;-47
2023/10/18 01:07:52;;;;;;;20.73;16.85;;;;;;;5.39;100.00;101097.72;5034527;28;20041;-52
2023/10/18 01:10:19;;;;;;;20.40;16.52;;;;;;;5.29;100.00;101080.38;5034739;28;20029;-50
2023/10/18 01:12:45;;;;;;;19.63;15.85;;;;;;;5.81;100.00;101160.06;5049953;28;20370;-51
2023/10/18 01:15:12;;;;;;;19.90;16.33;;;;;;;5.83;100.00;101170.53;5034436;28;20048;-49
2023/10/18 01:17:42;;;;;;;20.88;15.85;;;;;;;5.39;100.00;101087.28;5033335;28;20401;-48
2023/10/18 01:22:52;;;;;;;18.38;15.38;;;;;;;5.45;100.00;101077.69;5034507;28;20137;-54
2023/10/18 01:25:18;;;;;;;19.77;15.35;;;;;;;5.85;100.00;101129.56;5034370;28;20065;-48
2023/10/18 01:27:45;;;;;;;17.27;14.60;;;;;;;5.77;100.00;101141.84;5034279;28;20140;-51
2023/10/18 01:30:14;;;;;;;16.92;15.18;;;;;;;5.77;100.00;101134.88;5034271;28;20052;-54
2023/10/18 01:32:40;;;;;;;17.73;14.45;;;;;;;5.81;100.00;101127.88;5032889;28;20481;-50
2023/10/18 01:35:05;;;;;;;17.70;15.82;;;;;;;5.81;100.00;101135.72;5031439;28;20041;-49
2023/10/18 01:37:31;;;;;;;20.60;15.20;;;;;;;5.82;100.00;101134.81;5049614;28;20076;-49
2023/10/18 01:39:57;;;;;;;16.63;14.52;;;;;;;5.49;100.00;101074.13;5033919;28;20499;-48
2023/10/18 01:42:25;;;;;;;17.50;14.32;;;;;;;5.28;100.00;101026.47;5034077;28;20366;-49
2023/10/18 01:44:52;;;;;;;17.45;13.75;;;;;;;5.40;100.00;101044.66;5048382;28;20044;-53
2023/10/18 01:47:20;;;;;;;17.02;15.15;;;;;;;5.76;100.00;101117.44;5034231;28;20133;-48
2023/10/18 01:49:46;;;;;;;19.33;15.63;;;;;;;5.43;100.00;101062.91;5049316;28;20389;-52
2023/10/18 01:52:12;;;;;;;18.67;14.48;;;;;;;5.74;100.00;101114.00;5032023;28;20033;-52
2023/10/18 01:54:38;;;;;;;18.25;14.02;;;;;;;5.61;100.00;101083.63;5033916;28;20049;-52
2023/10/18 01:57:06;;;;;;;20.50;15.13;;;;;;;5.79;100.00;101095.66;5033523;28;20425;-52
2023/10/18 01:59:34;;;;;;;18.73;15.30;;;;;;;5.63;100.00;101074.06;5033567;28;20036;-52
2023/10/18 02:02:00;;;;;;;20.17;15.02;;;;;;;5.71;100.00;101097.47;5032699;28;20033;-52
2023/10/18 02:04:26;;;;;;;17.63;14.30;;;;;;;5.66;100.00;101103.59;5034147;28;20033;-49
2023/10/18 02:06:55;;;;;;;16.70;13.52;;;;;;;5.67;100.00;101092.28;5015683;28;20500;-50
2023/10/18 02:09:20;;;;;;;18.08;13.65;;;;;;;5.64;100.00;101081.84;5031768;28;20481;-51
2023/10/18 02:11:46;;;;;;;16.95;14.32;;;;;;;5.68;100.00;101075.75;5032124;28;20153;-50
2023/10/18 02:14:13;;;;;;;15.75;14.05;;;;;;;5.68;100.00;101078.34;5033458;28;20083;-49
2023/10/18 02:16:39;;;;;;;16.75;13.55;;;;;;;5.77;100.00;101081.75;5033484;28;20030;-51
2023/10/18 02:19:06;;;;;;;15.30;13.23;;;;;;;5.74;100.00;101093.09;5033734;28;20041;-54
2023/10/18 02:21:34;;;;;;;17.02;13.65;;;;;;;5.73;100.00;101080.03;5033461;28;20041;-47
2023/10/18 02:24:00;;;;;;;15.85;14.23;;;;;;;5.44;100.00;101031.56;5030451;28;20061;-54
2023/10/18 02:28:54;;;;;;;15.20;13.25;;;;;;;5.67;100.00;101073.13;5033589;28;20432;-49
2023/10/18 02:31:22;;;;;;;17.65;14.25;;;;;;;5.16;100.00;100984.81;5031804;28;20057;-54
2023/10/18 02:33:48;;;;;;;17.42;13.23;;;;;;;5.66;100.00;101074.88;5047824;28;20128;-52
2023/10/18 02:36:20;;;;;;;16.95;13.50;;;;;;;5.68;100.00;101069.66;5032774;28;20124;-50
2023/10/18 02:38:46;;;;;;;14.38;12.88;;;;;;;5.38;100.00;101015.06;5030179;28;20427;-50
2023/10/18 02:41:15;;;;;;;15.57;13.98;;;;;;;5.73;100.00;101052.19;5032612;28;20103;-52
2023/10/18 02:43:45;;;;;;;16.02;13.52;;;;;;;5.66;100.00;101048.75;5032835;28;20045;-51
2023/10/18 02:46:13;;;;;;;17.55;13.55;;;;;;;5.69;100.00;101046.09;5033093;28;20071;-49
2023/10/18 02:48:40;;;;;;;16.77;13.93;;;;;;;5.70;100.00;101060.03;5032869;28;20049;-50
2023/10/18 02:51:06;;;;;;;15.77;13.25;;;;;;;5.36;100.00;100965.50;5032825;28;20030;-52
2023/10/18 02:53:33;;;;;;;14.88;12.23;;;;;;;5.75;100.00;101029.50;5032584;28;20393;-49
2023/10/18 02:55:59;;;;;;;18.75;13.32;;;;;;;5.66;100.00;101012.19;5030704;28;20164;-49
2023/10/18 02:58:28;;;;;;;13.65;11.95;;;;;;;5.81;100.00;101020.78;5032740;28;20524;-51
2023/10/18 03:00:54;;;;;;;14.73;12.88;;;;;;;5.36;100.00;100942.00;5032777;28;20033;-53
2023/10/18 03:03:22;;;;;;;15.05;12.57;;;;;;;5.79;100.00;101031.22;5032807;28;20037;-49
2023/10/18 03:05:48;;;;;;;15.63;13.10;;;;;;;5.84;100.00;101016.38;5032559;28;20032;-52
2023/10/18 03:08:13;;;;;;;15.40;12.52;;;;;;;5.90;100.00;101018.94;5047871;28;20026;-54
2023/10/18 03:10:44;;;;;;;19.23;12.20;;;;;;;5.89;100.00;101022.47;5030821;28;20084;-48
2023/10/18 03:13:11;;;;;;;17.83;12.18;;;;;;;5.91;100.00;101023.31;5032431;28;20033;-50
2023/10/18 03:15:49;;;;;;;13.63;11.63;;;;;;;5.83;100.00;100991.16;5030865;28;20397;-46
2023/10/18 03:18:17;;;;;;;12.98;11.68;;;;;;;5.86;100.00;100983.31;5032444;28;20072;-50
2023/10/18 03:20:42;;;;;;;14.15;12.10;;;;;;;5.95;100.00;100998.00;5032229;28;20037;-51
2023/10/18 03:23:08;;;;;;;15.10;12.27;;;;;;;5.92;100.00;100990.22;5032235;28;20037;-50
2023/10/18 03:25:34;;;;;;;15.35;11.85;;;;;;;5.95;100.00;100988.44;5032189;28;20167;-48
2023/10/18 03:28:12;;;;;;;15.55;12.43;;;;;;;5.99;100.00;100984.00;5030227;28;20033;-51
2023/10/18 03:30:47;;;;;;;13.52;10.80;;;;;;;5.97;100.00;100981.44;5032038;28;20037;-52
2023/10/18 03:33:12;;;;;;;11.73;10.50;;;;;;;5.61;100.00;100900.84;5063937;28;20056;-52
2023/10/18 03:35:40;;;;;;;14.00;10.90;;;;;;;5.73;100.00;100910.28;5032021;28;20026;-52
2023/10/18 03:38:17;;;;;;;13.32;11.10;;;;;;;5.96;100.00;100940.50;5031905;28;20037;-46
2023/10/18 03:40:56;;;;;;;11.35;10.15;;;;;;;6.02;100.00;100947.41;5032079;28;20120;-53
2023/10/18 03:43:26;;;;;;;11.70;10.60;;;;;;;6.16;100.00;100969.88;5030422;28;20512;-53
2023/10/18 03:48:46;;;;;;;11.95;10.57;;;;;;;5.87;100.00;100911.88;5031976;28;20089;-51
2023/10/18 03:51:18;;;;;;;10.65;9.45;;;;;;;6.18;100.00;100948.97;5046097;28;20045;-52
2023/10/18 03:53:43;;;;;;;11.73;10.52;;;;;;;6.18;100.00;100952.44;5014695;28;20029;-52
2023/10/18 03:56:13;;;;;;;12.80;10.15;;;;;;;6.21;100.00;100954.16;5031635;28;20567;-51
2023/10/18 03:58:42;;;;;;;11.55;9.82;;;;;;;6.19;100.00;100954.16;5030373;28;20037;-52
2023/10/18 04:01:12;;;;;;;10.85;8.95;;;;;;;5.82;100.00;100879.69;5032033;28;20034;-50
2023/10/18 04:03:37;;;;;;;10.80;9.75;;;;;;;5.80;100.00;100884.09;5031886;28;20038;-52
2023/10/18 04:06:04;;;;;;;11.20;9.18;;;;;;;6.13;100.00;100942.91;5032310;28;20037;-53
2023/10/18 04:08:29;;;;;;;12.02;10.00;;;;;;;5.78;100.00;100878.00;5033371;28;20412;-49
2023/10/18 04:10:58;;;;;;;10.90;9.82;;;;;;;5.92;100.00;100888.31;5035663;28;20047;-52
2023/10/18 04:13:24;;;;;;;12.88;8.98;;;;;;;5.83;100.00;100870.13;5035680;28;20038;-53
2023/10/18 04:15:59;;;;;;;10.65;8.82;;;;;;;6.13;100.00;100912.41;5034189;28;20056;-50
2023/10/18 04:18:34;;;;;;;10.95;9.77;;;;;;;6.21;100.00;100938.47;5035747;28;20072;-49
2023/10/18 04:21:05;;;;;;;9.95;8.95;;;;;;;5.81;100.00;100861.44;5035704;28;20045;-52
2023/10/18 04:23:31;;;;;;;13.87;9.03;;;;;;;5.83;100.00;100865.75;5035614;28;20327;-51
2023/10/18 04:26:10;;;;;;;10.98;9.45;;;;;;;6.29;100.00;100946.19;5035755;28;20032;-53
2023/10/18 04:28:39;;;;;;;10.43;9.13;;;;;;;5.82;100.00;100857.94;5049145;28;20091;-51
2023/10/18 04:31:08;;;;;;;11.75;9.38;;;;;;;6.23;100.00;100929.72;5035457;28;20029;-54
2023/10/18 04:33:35;;;;;;;10.38;9.23;;;;;;;5.80;100.00;100852.75;5033932;28;20045;-49
2023/10/18 04:36:11;;;;;;;12.35;9.15;;;;;;;6.22;100.00;100924.50;5035427;28;20037;-49
2023/10/18 04:38:44;;;;;;;10.95;9.60;;;;;;;6.15;100.00;100901.94;5035264;28;20034;-49
2023/10/18 04:43:50;;;;;;;10.05;9.05;;;;;;;5.81;100.00;100835.31;5035289;28;20038;-50
2023/10/18 04:46:16;;;;;;;10.48;8.93;;;;;;;5.93;100.00;100822.09;5035142;28;20476;-47
2023/10/18 04:51:28;;;;;;;11.68;8.45;;;;;;;6.42;100.00;100905.94;5049927;28;20374;-49
2023/10/18 04:54:03;;;;;;;11.68;8.93;;;;;;;6.41;100.00;100907.69;5034860;28;20041;-50
2023/10/18 04:56:34;;;;;;;12.48;9.70;;;;;;;6.01;100.00;100825.50;5034877;28;20033;-49
2023/10/18 05:04:31;;;;;;;11.98;9.30;;;;;;;6.40;100.00;100885.03;5015196;28;20092;-54
2023/10/18 05:07:03;;;;;;;11.27;9.18;;;;;;;6.29;100.00;100866.03;5029520;28;20477;-53
2023/10/18 05:11:59;;;;;;;11.07;9.93;;;;;;;6.37;100.00;100879.84;5034924;28;20511;-52
2023/10/18 05:14:42;;;;;;;10.18;9.13;;;;;;;6.31;100.00;100864.25;5026614;28;20092;-50
2023/10/18 05:17:10;;;;;;;11.02;9.82;;;;;;;6.33;100.00;100857.25;5024674;28;20065;-53
2023/10/18 05:19:41;;;;;;;11.18;9.30;;;;;;;5.90;100.00;100777.72;5012930;28;20452;-51
2023/10/18 05:22:08;;;;;;;11.48;9.18;;;;;;;5.90;100.00;100773.38;5012880;28;20066;-50
2023/10/18 05:24:37;;;;;;;10.57;8.90;;;;;;;5.98;100.00;100791.56;5014276;28;20046;-52
2023/10/18 05:27:05;;;;;;;10.02;9.02;;;;;;;6.26;100.00;100850.38;5033352;28;20087;-48
2023/10/18 05:29:43;;;;;;;11.82;9.88;;;;;;;5.86;100.00;100774.31;5024560;28;20053;-53
2023/10/18 05:32:36;;;;;;;12.07;9.38;;;;;;;6.29;100.00;100839.88;5012056;28;20033;-50
2023/10/18 05:35:03;;;;;;;11.48;9.57;;;;;;;6.25;100.00;100827.72;5014268;28;20057;-45
2023/10/18 05:37:32;;;;;;;11.52;9.35;;;;;;;6.27;100.00;100827.72;5014336;28;20389;-51
2023/10/18 05:42:46;;;;;;;10.68;9.38;;;;;;;6.27;100.00;100831.22;5033823;28;20067;-50
2023/10/18 05:45:12;;;;;;;13.23;10.48;;;;;;;6.27;100.00;100828.59;5034228;28;20175;-49
2023/10/18 05:47:38;;;;;;;10.60;9.23;;;;;;;6.24;100.00;100826.03;5016028;28;20378;-50
2023/10/18 05:50:04;;;;;;;13.52;9.35;;;;;;;5.93;100.00;100768.09;5013135;28;20045;-52
2023/10/18 05:52:38;;;;;;;11.20;9.77;;;;;;;6.16;100.00;100820.03;5012696;28;20374;-51
2023/10/18 05:55:10;;;;;;;10.57;9.05;;;;;;;5.85;100.00;100762.13;5014035;28;20465;-49
2023/10/18 05:57:37;;;;;;;14.27;9.48;;;;;;;6.23;100.00;100819.94;5020528;28;20087;-50
2023/10/18 06:00:17;;;;;;;10.43;9.23;;;;;;;5.88;100.00;100756.00;5013869;28;20038;-52
2023/10/18 06:02:43;;;;;;;10.10;9.10;;;;;;;6.26;100.00;100813.78;5014022;28;20045;-48
2023/10/18 06:05:12;;;;;;;10.63;8.52;;;;;;;5.89;100.00;100744.69;5011706;28;20026;-51
2023/10/18 06:07:37;;;;;;;10.90;9.18;;;;;;;5.83;100.00;100731.69;5027064;28;20087;-51
2023/10/18 06:10:23;;;;;;;14.27;9.35;;;;;;;5.73;100.00;100756.19;5013765;28;20108;-50
2023/10/18 06:12:48;;;;;;;10.70;8.95;;;;;;;5.67;100.00;100736.25;5029200;28;20120;-51
2023/10/18 06:15:16;;;;;;;13.32;9.75;;;;;;;5.96;100.00;100788.09;5020047;28;20117;-52
2023/10/18 06:17:50;;;;;;;10.50;9.40;;;;;;;5.99;100.00;100791.53;5030620;28;20045;-53
2023/10/18 06:20:28;;;;;;;12.23;9.95;;;;;;;5.67;100.00;100724.06;5016783;28;20030;-55
2023/10/18 06:25:45;;;;;;;12.60;9.60;;;;;;;6.01;100.00;100779.31;5012713;28;20104;-50
2023/10/18 06:28:11;;;;;;;11.13;8.70;;;;;;;5.93;100.00;100762.88;5012554;28;20044;-47
2023/10/18 06:30:40;;;;;;;11.60;9.63;;;;;;;6.13;100.00;100779.13;5026097;28;20065;-51
2023/10/18 06:33:19;;;;;;;11.40;9.02;;;;;;;5.75;100.00;100703.03;5011860;28;20049;-48
2023/10/18 06:35:54;;;;;;;12.05;10.13;;;;;;;6.17;100.00;100767.75;5028004;28;20476;-54
2023/10/18 06:38:23;;;;;;;12.40;8.85;;;;;;;6.14;100.00;100777.38;5011705;28;20089;-53
2023/10/18 06:43:25;;;;;;;9.77;8.77;;;;;;;6.22;100.00;100772.88;5028552;28;20068;-49
2023/10/18 06:45:50;;;;;;;9.75;8.75;;;;;;;5.89;100.00;100698.53;5031579;28;20463;-53
2023/10/18 06:48:16;;;;;;;10.82;8.93;;;;;;;6.28;100.00;100764.09;5044700;28;20072;-50
2023/10/18 06:50:46;;;;;;;11.93;8.48;;;;;;;6.40;100.00;100758.66;5015257;28;20034;-47
2023/10/18 06:53:13;;;;;;;9.02;8.13;;;;;;;6.27;100.00;100736.25;5047406;28;20488;-52
2023/10/18 07:00:51;;;;;;;11.27;9.32;;;;;;;6.64;100.00;100755.63;5032372;28;20068;-49
2023/10/18 07:03:27;;;;;;;9.88;8.45;;;;;;;6.68;100.00;100750.31;5042372;28;20044;-53
2023/10/18 07:05:57;;;;;;;10.52;8.98;;;;;;;6.33;100.00;100700.41;5012733;28;20041;-52
2023/10/18 07:08:29;;;;;;;10.88;9.02;;;;;;;6.55;100.00;100708.72;5020275;28;20461;-49
2023/10/18 07:10:55;;;;;;;10.63;8.85;;;;;;;6.65;100.00;100728.59;5027643;28;20046;-51
2023/10/18 07:13:33;;;;;;;9.93;8.88;;;;;;;6.40;100.00;100682.84;5023068;28;20038;-46
2023/10/18 07:21:38;;;;;;;10.38;8.65;;;;;;;6.71;100.00;100705.78;5012713;28;20083;-52
2023/10/18 07:24:09;;;;;;;9.57;8.07;;;;;;;7.08;100.00;100750.44;5027749;28;20129;-49
2023/10/18 07:26:35;;;;;;;10.95;8.05;;;;;;;6.95;100.00;100722.78;5008443;28;20468;-50
2023/10/18 07:29:00;;;;;;;10.13;7.43;;;;;;;7.09;100.00;100739.06;5026413;28;20034;-52
2023/10/18 07:31:32;;;;;;;8.77;7.88;;;;;;;7.15;100.00;100738.94;5029486;28;20033;-49
2023/10/18 07:34:02;;;;;;;9.90;8.27;;;;;;;6.85;100.00;100668.91;5031938;28;20056;-47
2023/10/18 07:36:28;;;;;;;9.70;8.60;;;;;;;7.14;100.00;100726.78;5012561;28;20036;-48
2023/10/18 07:38:57;;;;;;;10.63;8.98;;;;;;;7.19;100.00;100724.91;5012002;28;20149;-51
2023/10/18 07:41:28;;;;;;;9.18;8.00;;;;;;;7.35;100.00;100728.94;5012106;28;20037;-48
2023/10/18 07:43:55;;;;;;;8.63;7.07;;;;;;;7.42;100.00;100739.28;5012089;28;20120;-52
2023/10/18 07:46:24;;;;;;;8.57;7.47;;;;;;;7.57;100.00;100731.09;5017608;28;20409;-46
2023/10/18 07:48:53;;;;;;;9.68;8.43;;;;;;;7.58;100.00;100717.97;5025307;28;20046;-51
2023/10/18 07:51:28;;;;;;;8.02;7.15;;;;;;;7.53;100.00;100703.25;5038099;28;20044;-51
2023/10/18 07:53:54;;;;;;;7.80;6.38;;;;;;;7.62;100.00;100724.84;5011306;28;20034;-48
2023/10/18 07:56:27;;;;;;;10.15;7.55;;;;;;;7.69;100.00;100702.88;5012275;28;20034;-51
2023/10/18 07:58:53;;;;;;;8.93;7.13;;;;;;;7.69;100.00;100681.06;5011410;28;20034;-50
2023/10/18 08:04:04;;;;;;;8.75;7.05;;;;;;;7.54;100.00;100634.25;5029400;28;20133;-53
2023/10/18 08:06:33;;;;;;;8.43;7.03;;;;;;;7.63;100.00;100634.91;5012258;28;20033;-52
2023/10/18 08:09:03;;;;;;;7.95;7.15;;;;;;;8.26;100.00;100686.66;5011046;28;20029;-50
2023/10/18 08:11:32;;;;;;;7.25;6.55;;;;;;;8.28;100.00;100691.00;5010851;28;20025;-51
2023/10/18 08:13:57;;;;;;;8.02;7.28;;;;;;;8.26;100.00;100679.63;5009960;28;20037;-48
2023/10/18 08:16:43;;;;;;;10.00;7.57;;;;;;;8.38;100.00;100687.22;5009633;28;20172;-50
2023/10/18 08:19:09;;;;;;;8.35;6.68;;;;;;;8.49;100.00;100689.59;5023578;28;20045;-50
2023/10/18 08:21:37;;;;;;;7.10;6.40;;;;;;;8.54;100.00;100687.69;5030076;28;20492;-51
2023/10/18 08:24:20;;;;;;;8.68;6.72;;;;;;;8.18;100.00;100610.81;5012055;28;20069;-54
2023/10/18 08:26:46;;;;;;;9.68;7.15;;;;;;;8.64;100.00;100698.81;5009169;28;20397;-51
2023/10/18 08:29:14;;;;;;;8.70;6.63;;;;;;;8.49;100.00;100648.44;5011549;28;20081;-50
2023/10/18 08:31:39;;;;;;;10.98;6.68;;;;;;;8.94;100.00;100690.09;5022690;28;20116;-50
2023/10/18 08:34:37;;;;;;;7.88;6.35;;;;;;;8.91;100.00;100674.41;5013013;28;20137;-51
2023/10/18 08:37:01;;;;;;;7.05;6.35;;;;;;;9.07;100.00;100667.84;5014546;28;20057;-50
2023/10/18 08:39:27;;;;;;;9.68;6.47;;;;;;;9.03;100.00;100664.44;5046143;28;20080;-48
2023/10/18 08:42:09;;;;;;;12.18;6.50;;;;;;;9.07;100.00;100659.09;5038953;28;20429;-50
2023/10/18 08:44:38;;;;;;;9.40;6.97;;;;;;;8.24;100.00;100476.91;4990419;28;20085;-52
2023/10/18 08:49:35;;;;;;;8.60;7.20;;;;;;;9.16;100.00;100622.94;5022506;28;20540;-52
2023/10/18 08:52:10;;;;;;;10.05;6.72;;;;;;;9.15;100.00;100594.09;4991248;28;20046;-48
2023/10/18 08:54:42;;;;;;;8.10;6.22;;;;;;;9.17;100.00;100592.25;4993299;28;20049;-48
2023/10/18 08:57:11;;;;;;;6.72;6.13;;;;;;;9.29;100.00;100581.38;5009448;28;20935;-52
2023/10/18 08:59:43;;;;;;;7.38;5.68;;;;;;;9.69;100.00;100630.94;5010318;28;20061;-50
2023/10/18 09:02:18;;;;;;;6.55;5.50;;;;;;;9.93;100.00;100645.88;5025572;28;20469;-53
2023/10/18 09:04:52;;;;;;;7.75;5.68;;;;;;;9.65;100.00;100585.47;4995370;28;20067;-48
2023/10/18 09:07:21;;;;;;;8.00;5.88;;;;;;;9.93;100.00;100636.25;5027041;28;20414;-51
2023/10/18 09:09:57;;;;;;;9.80;5.57;;;;;;;8.87;100.00;100458.41;4995295;28;20085;-51
2023/10/18 09:15:27;;;;;;;6.65;5.88;;;;;;;9.90;100.00;100628.44;4995290;28;20073;-51
2023/10/18 09:18:05;;;;;;;9.30;6.10;;;;;;;9.71;100.00;100563.41;4995140;28;20042;-50
2023/10/18 09:20:31;;;;;;;8.85;6.25;;;;;;;9.93;100.00;100624.84;4995204;28;20053;-55
2023/10/18 09:23:03;;;;;;;7.65;5.75;;;;;;;9.93;100.00;100615.19;4995151;28;20061;-50
2023/10/18 09:25:47;;;;;;;7.40;5.90;;;;;;;9.49;100.00;100531.69;4995066;28;20026;-49
2023/10/18 09:28:30;;;;;;;8.13;6.03;;;;;;;9.94;100.00;100608.19;4995095;28;20050;-50
2023/10/18 09:31:00;;;;;;;7.38;5.85;;;;;;;10.16;100.00;100617.09;4994941;28;20477;-52
2023/10/18 09:33:32;;;;;;;8.60;6.57;;;;;;;10.04;100.00;100573.63;4995011;28;20105;-52
2023/10/18 09:36:01;;;;;;;6.75;5.95;;;;;;;9.93;100.00;100528.44;4994848;28;20062;-47
2023/10/18 09:38:39;;;;;;;7.57;6.00;;;;;;;10.23;100.00;100560.75;4994748;28;20445;-52
2023/10/18 09:41:05;;;;;;;9.90;6.18;;;;;;;9.79;100.00;100516.69;4994858;28;20038;-52
2023/10/18 09:43:32;;;;;;;8.77;6.60;;;;;;;9.83;100.00;100510.41;4994409;28;20030;-52
2023/10/18 09:45:59;;;;;;;8.38;6.88;;;;;;;10.23;100.00;100573.03;4994916;28;20061;-47
2023/10/18 09:48:25;;;;;;;6.95;6.25;;;;;;;9.68;100.00;100479.41;4994631;28;20045;-47
2023/10/18 09:50:54;;;;;;;8.05;6.18;;;;;;;10.16;100.00;100540.81;4994857;28;20504;-54
2023/10/18 09:53:25;;;;;;;6.43;5.82;;;;;;;10.28;100.00;100532.47;5026335;28;20117;-50
2023/10/18 09:55:52;;;;;;;8.30;6.80;;;;;;;10.48;100.00;100526.50;4993461;28;20041;-52
2023/10/18 09:58:18;;;;;;;7.38;5.80;;;;;;;10.56;100.00;100516.56;4994550;28;20123;-51
2023/10/18 10:00:47;;;;;;;7.60;6.10;;;;;;;10.22;100.00;100466.94;4994080;28;20392;-50
2023/10/18 10:03:24;;;;;;;8.23;6.07;;;;;;;10.41;100.00;100464.50;4994369;28;20034;-53
2023/10/18 10:05:49;;;;;;;6.65;6.05;;;;;;;10.84;100.00;100521.63;5022841;28;20142;-52
2023/10/18 10:08:15;;;;;;;8.82;6.70;;;;;;;10.96;100.00;100529.91;4993335;28;20513;-47
2023/10/18 10:10:44;;;;;;;7.30;6.60;;;;;;;11.07;100.00;100527.72;4994037;28;20062;-49
2023/10/18 10:13:18;;;;;;;7.30;6.15;;;;;;;11.19;100.00;100516.72;4994176;28;20034;-49
2023/10/18 10:15:45;;;;;;;7.00;6.30;;;;;;;11.10;100.00;100500.41;4994334;28;20390;-50
2023/10/18 10:18:13;;;;;;;7.43;6.72;;;;;;;11.31;100.00;100510.09;4994030;28;20038;-49
2023/10/18 10:20:41;;;;;;;7.00;6.25;;;;;;;11.46;100.00;100506.81;4992268;28;20464;-50
2023/10/18 10:23:15;;;;;;;7.80;6.28;;;;;;;11.46;100.00;100504.19;5008598;28;20045;-52
2023/10/18 10:26:01;;;;;;;8.02;5.57;;;;;;;11.42;100.00;100446.38;5006707;28;20030;-52
2023/10/18 10:31:53;;;;;;;6.72;6.03;;;;;;;12.09;100.00;100502.41;4980991;28;20042;-52
2023/10/18 10:34:24;;;;;;;7.55;5.75;;;;;;;12.04;100.00;100476.22;4993555;28;20120;-52
2023/10/18 10:36:50;;;;;;;6.43;5.68;;;;;;;12.19;100.00;100491.38;4992842;28;20073;-50
2023/10/18 10:39:23;;;;;;;7.95;6.35;;;;;;;12.04;100.00;100473.59;4993776;28;20034;-46
2023/10/18 10:41:49;;;;;;;7.35;5.97;;;;;;;12.02;100.00;100462.25;4993904;28;20057;-53
2023/10/18 10:44:22;;;;;;;6.03;5.53;;;;;;;11.84;100.00;100424.38;5025421;28;20065;-53
2023/10/18 10:46:50;;;;;;;9.13;6.70;;;;;;;12.03;100.00;100448.13;4992326;28;20493;-51
2023/10/18 10:49:58;;;;;;;6.70;5.85;;;;;;;11.96;100.00;100459.03;4992254;28;20034;-49
2023/10/18 10:52:29;;;;;;;8.38;5.97;;;;;;;11.62;100.00;100370.81;4991903;28;20593;-52
2023/10/18 10:55:21;;;;;;;7.50;5.40;;;;;;;12.00;100.00;100402.56;4993342;28;20088;-51
2023/10/18 10:57:47;;;;;;;7.57;5.57;;;;;;;12.44;100.00;100425.13;4993433;28;20037;-46
2023/10/18 11:03:06;;;;;;;8.20;5.90;;;;;;;13.06;100.00;100365.78;4993264;28;20045;-52
2023/10/18 11:05:36;;;;;;;;;;;;;;;13.68;100.00;100420.81;4993805;28;20092;-51
2023/10/18 11:08:01;;;;;;;6.15;5.57;;;;;;;13.92;100.00;100404.50;5008172;28;20373;-48
2023/10/18 11:10:28;;;;;;;7.32;5.57;;;;;;;13.95;100.00;100412.28;4993072;28;20118;-51
2023/10/18 11:12:54;;;;;;;6.80;6.10;;;;;;;13.79;100.00;100394.66;5024285;28;20042;-55
2023/10/18 11:15:27;;;;;;;8.75;5.40;;;;;;;13.62;100.00;100402.59;5024706;28;20525;-53
2023/10/18 11:17:53;;;;;;;6.28;5.68;;;;;;;13.64;100.00;100356.63;5021399;28;20177;-53
2023/10/18 11:20:30;;;;;;;7.63;5.50;;;;;;;14.18;100.00;100387.25;4992961;28;20125;-50
2023/10/18 11:22:56;;;;;;;6.25;5.35;;;;;;;14.45;100.00;100393.69;4993286;28;20030;-47
2023/10/18 11:25:30;;;;;;;6.28;5.47;;;;;;;14.19;100.00;100316.59;4993108;28;20045;-54
2023/10/18 11:28:10;;;;;;;6.40;5.80;;;;;;;14.34;100.00;100305.19;4993012;28;20098;-52
2023/10/18 11:30:37;;;;;;;7.25;5.55;;;;;;;14.72;100.00;100317.13;4992830;28;20030;-50
2023/10/18 11:33:03;;;;;;;7.70;5.55;;;;;;;15.48;100.00;100360.38;4992726;28;20050;-49
2023/10/18 11:35:42;;;;;;;6.60;5.15;;;;;;;15.86;100.00;100358.03;4992939;28;20042;-49
2023/10/18 11:38:10;;;;;;;7.40;5.10;;;;;;;15.59;100.00;100291.59;4992780;28;20489;-45
2023/10/18 11:40:40;;;;;;;5.90;5.30;;;;;;;15.83;100.00;100348.47;4991418;28;20037;-47
2023/10/18 11:43:08;;;;;;;7.65;5.15;;;;;;;15.82;100.00;100333.47;5007580;28;20050;-46
2023/10/18 11:45:38;;;;;;;6.38;5.63;;;;;;;15.92;100.00;100326.66;4992722;28;20026;-49
2023/10/18 11:48:05;;;;;;;5.82;5.22;;;;;;;15.65;100.00;100315.09;4992596;28;20034;-49
2023/10/18 11:50:47;;;;;;;6.75;5.45;;;;;;;15.73;100.00;100284.47;5007860;28;20477;-46
2023/10/18 11:53:14;;;;;;;8.57;5.70;;;;;;;15.51;100.00;100270.84;4992674;28;20037;-48
2023/10/18 11:56:02;;;;;;;5.75;5.15;;;;;;;15.63;100.00;100311.69;5024150;28;20030;-47
2023/10/18 11:58:30;;;;;;;7.10;5.60;;;;;;;15.51;100.00;100308.00;4992386;28;20540;-47
2023/10/18 12:00:58;;;;;;;5.65;4.95;;;;;;;15.65;100.00;100305.34;4992316;28;20545;-51
2023/10/18 12:03:27;;;;;;;6.50;5.30;;;;;;;15.42;100.00;100281.13;4992627;28;20089;-45
2023/10/18 12:05:54;;;;;;;8.73;4.95;;;;;;;14.93;100.00;100225.78;4991838;28;20046;-44
2023/10/18 12:08:23;;;;;;;13.43;6.80;;;;;;;14.99;100.00;100208.66;4992273;28;20113;-48
2023/10/18 12:10:49;;;;;;;5.88;5.28;;;;;;;15.37;100.00;100268.16;4992359;28;20477;-47
2023/10/18 12:13:16;;;;;;;6.13;5.45;;;;;;;15.36;100.00;100265.59;4991823;28;20052;-46
2023/10/18 12:15:42;;;;;;;5.10;4.60;;;;;;;15.24;100.00;100267.19;4990713;28;20042;-48
2023/10/18 12:18:09;;;;;;;7.97;6.07;;;;;;;14.92;100.00;100216.13;5022221;28;20190;-45
2023/10/18 12:20:35;;;;;;;6.55;5.43;;;;;;;14.95;100.00;100257.47;4990819;28;20041;-45
2023/10/18 12:23:10;;;;;;;6.38;5.50;;;;;;;14.69;100.00;100244.91;5005739;28;20405;-46
2023/10/18 12:25:39;;;;;;;7.90;5.32;;;;;;;14.49;100.00;100238.13;4990955;28;20038;-48